EGXZ

RAF Topcliffe

Airport
ICAO code
EGXZ
Summary
ICAO Region
EUR
ICAO Territory
Location

, England

Serving
Topcliffe
Elevation
92 ft
Coordinates
54° 12' 20" N , 1° 22' 56" W
Metar
EGXZ 240950Z AUTO 16001KT 0200 FG OVC001/// M00/M00 Q0993

Runways

Designator Length Width Surface Rops
13/31 1262 46 ASP No/No
3/21 1814 46 ASP No/No

Airport map

Aerial View

SKYbrary Partners:

Safety knowledge contributed by: